Tiempo atmosférico en la estación meteorológica de Almería Aeropuerto, Almería (21 m.)



Fecha
DESCASC
Temp. máxima en grados centígrados (hora)
DESCASC
Temp. mínima en grados centígrados (hora)
DESCASC
Temp. media en grados centígrados
DESCASC
Racha de viento máxima en m/sg (hora)
DESCASC
Velocidad máxima media en intervalos de 10 minutos(hora)
DESCASC
Precipitaciones diarias en mm
DESCASC
Precipitaciones de 00:00 a 06:00 en mm
DESCASC
Precipitaciones de 06:00 a 12:00 en mm
DESCASC
Precipitaciones de 12:00 a 18:00 en mm
DESCASC
Precipitaciones de 18:00 a 24:00 en mm
DESCASC
10-07-2020 29.9 (15:50) 22.6 (05:50) 26.3 6.11 (03:20) 4.72 (11:10) -- 0 0 0 --
09-07-2020 29.1 (14:10) 23.8 (07:00) 26.4 10.28 (06:30) 7.5 (06:30) 0 0 0 0 0
08-07-2020 -- (--) -- (--) -- -- (--) -- (--) -- -- 0 0 --
07-07-2020 29.2 (10:10) 20.9 (05:10) 25.1 5.83 (14:50) 3.61 (13:20) 0 0 0 0 0
06-07-2020 -- (--) -- (--) -- -- (--) -- (--) -- -- -- -- --
05-07-2020 36.7 (14:50) 23.1 (00:00) 29.9 12.78 (11:30) 9.17 (18:40) 0 0 0 0 0
04-07-2020 35 (16:40) 23.3 (00:00) 29.1 11.67 (13:00) 7.78 (20:30) 0 0 0 0 0
03-07-2020 33.1 (14:20) 20.1 (05:50) 26.6 13.33 (10:40) 8.89 (11:10) 0 0 0 0 0
02-07-2020 31 (15:20) 20 (00:00) 25.5 10.83 (18:50) 5.83 (19:10) 0 0 0 0 0
01-07-2020 28.7 (17:10) 21.8 (00:00) 25.3 9.17 (17:50) 5.56 (17:50) 0 0 0 0 0
30-06-2020 29.5 (13:50) 22.1 (00:00) 25.8 13.89 (19:20) 7.5 (15:10) 0 0 0 0 0
29-06-2020 28.4 (13:30) 21 (00:00) 24.7 9.17 (05:00) 6.67 (16:10) 0 0 0 0 0
28-06-2020 27.7 (19:40) 19.3 (00:00) 23.5 5.83 (15:10) 4.17 (15:20) 0 0 0 0 0
27-06-2020 26 (15:10) 19.6 (00:00) 22.8 5 (15:00) 3.33 (12:00) 0 0 0 0 0
26-06-2020 26.4 (16:40) 20.1 (00:00) 23.3 7.78 (18:20) -- (--) 0 0 0 0 0
25-06-2020 28.5 (15:20) 20.3 (00:00) 24.4 7.22 (12:00) 5.28 (12:00) 0 0 0 0 0
24-06-2020 35.2 (12:30) 22 (00:00) 28.6 20 (09:20) 12.22 (09:20) -- -- 0 0 0
23-06-2020 35.1 (13:10) 25.2 (00:00) 30.1 20 (19:50) 14.72 (19:50) 0 0 0 0 0
22-06-2020 36.3 (15:00) 20.1 (00:00) 28.2 17.5 (19:10) 12.78 (18:10) 0 0 0 0 0
21-06-2020 26.4 (19:30) 18.9 (00:00) 22.6 4.72 (12:20) 3.61 (12:30) 0 0 0 0 0
20-06-2020 25.6 (10:10) 18.2 (00:00) 21.9 6.67 (11:30) 4.72 (11:30) 0 0 0 0 0
19-06-2020 24.2 (20:20) 18.9 (00:00) 21.6 12.5 (01:30) 8.61 (01:20) 0.7 0.7 0 0 0
18-06-2020 25.6 (10:20) 17.9 (00:00) 21.8 8.33 (23:00) 6.11 (14:20) 0 0 0 0 0
17-06-2020 26.2 (20:20) 17.3 (00:00) 21.8 7.22 (13:00) 5.28 (13:00) 0 0 0 0 0
16-06-2020 25 (15:40) 17.1 (00:00) 21.1 8.33 (16:30) 5.83 (17:00) 0 0 0 0 0
15-06-2020 23 (17:10) 15.1 (00:00) 19.1 8.33 (15:30) 5.83 (16:40) 0 0 0 0 0

Gráficas

Temp. máximas Temp. mínimas Temp. medias Precipitaciones Rachas de viento máximas Velocidades máximas media en intervalos de 10 minutos

Datos horarios

Fecha y hora oficial Temperatura (ºC) Velocidad del viento (km/h) Dirección del viento Racha (km/h) Dirección de racha Precipitación (mm) Presión (hPa) Tendencia (hPa) Humedad (%)
2020-07-14 23:00:00 -- -- -- -- -- -- -- -- --
2020-07-14 22:00:00 28 15 Este 39 Este 0 1010.2 0.1 44
2020-07-14 21:00:00 27.7 24 Nordeste 46 Este 0 1010.1 0.1 58
2020-07-14 20:00:00 29.4 21 Este 30 Este 0 1010.1 -0.2 45
2020-07-14 19:00:00 30.7 23 Este 39 Este 0 1010.1 -0.6 40
2020-07-14 18:00:00 32.5 31 Este 42 Este 0 1010 -1.5 36
2020-07-14 17:00:00 32.1 28 Este 48 Este 0 1010.3 -1.9 43
2020-07-14 16:00:00 33 32 Este 46 Sudeste 0 1010.7 -1.4 40
2020-07-14 15:00:00 33.6 23 Este 37 Este 0 1011.5 -1.3 42
2020-07-14 14:00:00 33 24 Este 41 Este 0 1012.2 -0.7 44
2020-07-14 13:00:00 32.2 19 Este 35 Sudeste 0 1012.1 -1.2 46
2020-07-14 12:00:00 29.1 14 Sudoeste 21 Sudoeste 0 1012.8 -0.6 61
2020-07-14 11:00:00 28.6 13 Sur 18 Sudoeste 0 1012.9 -0.3 61
2020-07-14 10:00:00 29.1 12 Este 18 Este 0 1013.3 0.4 51
2020-07-14 09:00:00 27.1 8 Nordeste 13 Nordeste 0 1013.4 0.6 57
2020-07-14 08:00:00 24.8 6 Este 15 Norte 0 1013.2 -- 54
2020-07-14 07:00:00 24.5 6 Norte -- -- -- 1012.9 -- 53
2020-07-14 06:00:00 25.1 13 Norte 24 Norte 0 1012.8 -- 52
2020-07-14 05:00:00 25 14 Norte 24 Norte 0 1013.1 -- 55
2020-07-14 04:00:00 24.8 8 Norte 11 Norte 0 1013.4 -- 56
2020-07-14 03:00:00 25.8 5 Norte -- -- 0 1014.1 -- 53
2020-07-14 02:00:00 26 3 Norte 11 Nordeste 0 1014.5 -- 51
2020-07-14 01:00:00 25.6 4 Noroeste -- -- -- 1014.7 -- 52
2020-07-14 00:00:00 26.2 4 Este 9 Este 0 1014.9 -- 50
2020-07-13 23:00:00 26.6 4 Este 11 Este 0 1014.8 -- 46
2020-07-13 22:00:00 26.9 6 Este 18 Oeste 0 1014.3 1.2 62
2020-07-13 21:00:00 28.1 11 Sudoeste 21 Sudoeste 0 1013.8 0.5 59
2020-07-13 20:00:00 28.7 15 Sudoeste 26 Sudoeste 0 1013.3 -0.4 63
2020-07-13 19:00:00 29.5 21 Sudoeste 30 Oeste 0 1013.1 -1 59
2020-07-13 18:00:00 29.3 24 Sudoeste 33 Oeste 0 1013.3 -1.4 66
2020-07-13 17:00:00 29.5 27 Sudoeste 37 Sudoeste 0 1013.7 -1.3 65
2020-07-13 16:00:00 29.6 27 Sudoeste 35 Sudoeste 0 1014.1 -0.8 63
2020-07-13 15:00:00 29.4 25 Sudoeste 30 Sudoeste 0 1014.7 0.2 66
2020-07-13 14:00:00 29.8 21 Sudoeste 28 Sudoeste 0 1015 0.8 58
2020-07-13 13:00:00 29.3 15 Sudoeste 26 Sudoeste 0 1014.9 0.8 58
2020-07-13 12:00:00 28.5 18 Sudoeste 24 Sudoeste 0 1014.5 0.4 69
2020-07-13 11:00:00 27.5 14 Sudoeste 21 Sudoeste 0 1014.2 0.3 76
2020-07-13 10:00:00 27.7 10 Sur 21 Noroeste 0 1014.1 0.6 73
2020-07-13 09:00:00 28.9 8 Noroeste 24 Noroeste 0 1014.1 1 38
2020-07-13 08:00:00 26.6 10 Noroeste -- -- -- 1013.9 0.9 43
2020-07-13 07:00:00 26.2 11 Norte 18 Norte 0 1013.5 -- 46
2020-07-13 06:00:00 26.6 11 Norte 22 Noroeste 0 1013.1 -0.9 45
2020-07-13 05:00:00 27.1 14 Noroeste 22 Norte 0 1013 -1.6 46
2020-07-13 04:00:00 26.8 13 Noroeste 24 Noroeste 0 1013.2 -1.7 54
2020-07-13 03:00:00 27 10 Norte 26 Norte 0 1014 -0.6 53
2020-07-13 02:00:00 27.3 12 Noroeste 33 Nordeste 0 1014.6 0.7 53
2020-07-13 01:00:00 28.3 18 Nordeste 45 Este 0 1014.9 2.2 46
2020-07-13 00:00:00 28.4 28 Este 48 Nordeste 0 1014.6 3.2 40
2020-07-12 23:00:00 27.4 26 Nordeste 46 Nordeste 0 1013.9 3.2 55
2020-07-12 22:00:00 27.5 39 Este 63 Nordeste 0 1012.7 2.4 63
2020-07-12 21:00:00 28.9 40 Este 61 Este 0 1011.4 0.6 59
2020-07-12 20:00:00 31.2 40 Este 59 Este 0 1010.7 -0.2 46
2020-07-12 19:00:00 32.4 40 Este 54 Este 0 1010.3 -1.4 48
2020-07-12 18:00:00 35 31 Este 48 Este 0 1010.8 -1.2 38
2020-07-12 17:00:00 34.7 32 Este 50 Este 0 1010.9 -2.1 40
2020-07-12 16:00:00 34.5 36 Este 48 Este 0 1011.7 -2.2 39
2020-07-12 15:00:00 33.8 36 Este 50 Este 0 1012 -- 39
2020-07-12 14:00:00 32.8 34 Este 48 Este 0 1013 -1.3 41
2020-07-12 13:00:00 31.5 33 Este 46 Este 0 1013.9 -- 43
2020-07-12 12:00:00 30.9 30 Este 46 Este 0 1014.9 -- 44
2020-07-12 11:00:00 30.5 27 Este 46 Este 0 1014.3 -- 41
2020-07-12 10:00:00 31 28 Nordeste 45 Nordeste 0 1013.3 0.6 36
2020-07-12 09:00:00 29.5 27 Nordeste 52 Este 0 1012.4 -- 38
2020-07-12 08:00:00 29.1 19 Nordeste 39 Nordeste 0 1012.4 -- 36
2020-07-12 07:00:00 27.9 12 Este 54 Sudeste 0 1012.7 -- 45
2020-07-12 06:00:00 27.9 26 Noroeste 42 Noroeste 0 1011.7 -- 45
2020-07-12 05:00:00 28.8 17 Norte 35 Noroeste 0 1013.5 -- 43
2020-07-12 04:00:00 29.5 16 Noroeste 33 Este 0 1013.5 -- 38
2020-07-12 03:00:00 28.5 17 Norte 30 Este 0 1012.5 -- 50
2020-07-12 02:00:00 29.2 8 Norte 41 Nordeste 0 1014.2 -- 40
2020-07-12 01:00:00 28.5 29 Este 41 Este 0 1013.5 -- 47
2020-07-12 00:00:00 28.2 30 Nordeste -- -- -- 1012.9 -- 50
2020-07-11 23:00:00 28 31 Este 61 Este 0 1012.4 -- 53
2020-07-11 22:00:00 28.5 38 Este 54 Este 0 1011.2 -- 52
2020-07-11 21:00:00 28.8 31 Este 59 Este 0 1010.8 -- 57
2020-07-11 20:00:00 31.2 42 Este 59 Este 0 1010.4 -- 45
2020-07-11 19:00:00 32.7 41 Este 61 Este 0 1010.4 -1.4 42
2020-07-11 18:00:00 33.8 44 Este 61 Este 0 1010.8 -- 39
2020-07-11 17:00:00 35.3 44 Este 61 Este 0 1011.4 -- 28
2020-07-11 16:00:00 34.7 43 Este 65 Este 0 1011.8 -- 28
2020-07-11 15:00:00 34.4 45 Este 67 Este 0 1012 -- 33
2020-07-11 14:00:00 34.1 41 Este 59 Este 0 1012.4 -- 35
2020-07-11 13:00:00 32.7 45 Este 61 Este 0 1012.7 -- 42
2020-07-11 12:00:00 32.8 37 Este 50 Este 0 1012.4 -- 41
2020-07-11 11:00:00 32.9 28 Este 41 Este 0 1012.4 -- 34
2020-07-11 10:00:00 28.7 9 Sudoeste 13 Oeste 0 1012.4 -- 62
2020-07-11 09:00:00 26.7 0 Calma 15 Este 0 1012.2 -- 70
2020-07-11 08:00:00 24.1 7 Nordeste 11 Este 0 1011.8 -- 82
2020-07-11 07:00:00 23.3 6 Nordeste 15 Nordeste 0 1011.2 -- 88
2020-07-11 06:00:00 23.5 10 Nordeste 15 Nordeste 0 1010.8 -- 87
2020-07-11 05:00:00 24 6 Nordeste 11 Este 0 1010.7 -- 83
2020-07-11 04:00:00 24.6 7 Norte 13 Este 0 1010.8 -- 83
2020-07-11 03:00:00 25 9 Este 13 Nordeste 0 1011 -- 85
2020-07-11 02:00:00 25.2 4 Este 9 Este 0 1011.5 0.4 83
2020-07-11 01:00:00 25 3 Oeste 5 Oeste 0 1011.6 -- 84
2020-07-11 00:00:00 25.2 3 Sudoeste 9 Sudoeste 0 1011.5 -- 81
2020-07-10 23:00:00 25.6 7 Sudoeste 9 Sudoeste -- 1011.1 -- 80
2020-07-10 22:00:00 25.7 3 Oeste 8 Oeste 0 1010.5 -- 74
2020-07-10 21:00:00 26.9 6 Sudoeste 13 Sur 0 1010.1 -- 66
2020-07-10 20:00:00 27.7 9 Sudoeste 17 Sur 0 1009.8 -- 62
2020-07-10 19:00:00 28.2 12 Sudoeste 17 Sudoeste 0 1009.8 -- 61
2020-07-10 18:00:00 28.5 12 Sudoeste 21 Sudoeste 0 1009.9 -- 60
2020-07-10 17:00:00 29.1 14 Sudoeste 22 Sudoeste 0 1010.2 -- 57
2020-07-10 16:00:00 29.2 17 Sudoeste 22 Sudoeste 0 1010.7 -- 59
2020-07-10 15:00:00 28.9 14 Sudoeste 18 Sur 0 1011.2 -- 55
2020-07-10 14:00:00 29 15 Sudoeste 21 Sudoeste 0 1011.6 -0.3 56
2020-07-10 13:00:00 28 15 Sudoeste 21 Sur 0 1012 -- 64
2020-07-10 12:00:00 27.1 15 Sudoeste 21 Sudoeste 0 1012.3 -- 72
2020-07-10 11:00:00 26.5 16 Sudoeste 21 Sudoeste 0 1011.9 0.2 74
2020-07-10 10:00:00 26.9 10 Sur 13 Sur 0 1011.8 -- 67
2020-07-10 09:00:00 26.7 3 Norte 11 Oeste 0 1011.8 -- 62
2020-07-10 08:00:00 24.4 6 Nordeste 11 Nordeste 0 1011.7 -- 71
2020-07-10 07:00:00 22.9 8 Nordeste 11 Nordeste 0 1011.6 -- 76
2020-07-10 06:00:00 22.7 8 Nordeste 11 Este 0 1011.3 -- 78
2020-07-10 05:00:00 23.7 -- -- -- -- 0 1011 -- 84
2020-07-10 04:00:00 24.6 11 Sur 22 Noroeste 0 1011.5 -- 76
2020-07-10 03:00:00 24.6 13 Noroeste 18 Noroeste 0 1011.7 -- 72
2020-07-10 02:00:00 24.5 4 Noroeste 8 Oeste 0 1012.5 -- 76
2020-07-10 01:00:00 24.4 5 Oeste 11 Sudoeste 0 1013 -- 78
2020-07-10 00:00:00 24.7 9 Sudoeste 15 Sudoeste 0 1013.1 -- 81
2020-07-09 23:00:00 24.5 10 Sur 22 Sur 0 1012.5 -- 81
2020-07-09 22:00:00 24.9 15 Sur 22 Sur 0 1011.4 -- 81
2020-07-09 21:00:00 26.3 10 Sur 15 Sudoeste 0 1010.8 -- 72
2020-07-09 20:00:00 27.4 11 Sur 21 Sudoeste 0 1010.6 -- 67
2020-07-09 19:00:00 27.8 17 Sudoeste 28 Sudoeste 0 1010.9 -- 65
2020-07-09 18:00:00 27.9 20 Sudoeste 28 Sudoeste 0 1011.6 -- 67
2020-07-09 17:00:00 28 19 Sudoeste 28 Sudoeste 0 1012.2 -- 67
2020-07-09 16:00:00 28.5 20 Sur 26 Sudoeste 0 1012.5 -- 66
2020-07-09 15:00:00 28.3 19 Sur 26 Sur 0 1012.7 -- 66
2020-07-09 14:00:00 28.9 17 Sur 26 Sudoeste 0 1012.8 -- 63
2020-07-09 13:00:00 28 18 Sudoeste 24 Sudoeste 0 1012.6 -- 68
2020-07-09 12:00:00 27.6 13 Sur 18 Sudoeste 0 1012.6 -- 69
2020-07-09 11:00:00 27.4 10 Sudeste 15 Sudeste 0 1012.8 -- 70
2020-07-09 10:00:00 25.8 9 Sur 15 Sur 0 1012.5 -- 79
2020-07-09 09:00:00 25 8 Sudoeste 11 Sudoeste 0 1012 -- 82
2020-07-09 08:00:00 24.1 3 Oeste 21 Sudoeste 0 1011.9 -- 88
2020-07-09 07:00:00 23.9 19 Sudoeste 37 Oeste 0 1011.6 -- 87
2020-07-09 06:00:00 27.8 11 Noroeste 30 Noroeste 0 1010.3 -- 44
2020-07-09 05:00:00 28.1 18 Noroeste 32 Noroeste 0 1010.1 -- 43
2020-07-09 04:00:00 28 18 Noroeste 32 Noroeste 0 1011 -- 46
2020-07-09 03:00:00 26.2 12 Norte 18 Norte 0 1012.1 -- 62
2020-07-09 02:00:00 25.3 4 Norte 11 Norte 0 1013.1 -- 72
2020-07-09 01:00:00 25.8 7 Sudoeste 11 Oeste 0 1012.7 -- 72
2020-07-09 00:00:00 26.1 4 Oeste 45 Nordeste 0 1012.4 -- 67
2020-07-08 23:00:00 28.3 30 Este -- -- -- 1010.9 -- 49
2020-07-08 22:00:00 29.1 36 Este 63 Este 0 1009.7 -- 49
2020-07-08 21:00:00 30.3 43 Este 59 Este 0 1009.2 -- 43
2020-07-08 20:00:00 32.6 39 Nordeste 67 Este 0 1008.5 -- 31
2020-07-08 19:00:00 33 48 Este 67 Este 0 1008.8 -- 34
2020-07-08 18:00:00 34.8 42 Este 55 Este 0 1009.5 -- 28
2020-07-08 17:00:00 35.9 39 Este 52 Este 0 1010.2 -- 23
2020-07-08 16:00:00 37.1 33 Este 46 Este 0 1010.6 -- 24
2020-07-08 15:00:00 37 33 Este 46 Este 0 1010.9 -- 24
2020-07-08 14:00:00 36.7 33 Este 45 Nordeste 0 1011.5 -- 24
2020-07-08 13:00:00 36.3 31 Este 42 Este 0 1011.9 -- 22
2020-07-08 12:00:00 36 26 Este 35 Nordeste 0 1011.9 -- 23
2020-07-08 11:00:00 34.8 24 Este 37 Nordeste 0 1011.8 -- 24
2020-07-08 10:00:00 31.3 9 Nordeste 22 Este 0 1012 -- 33
2020-07-08 09:00:00 28.3 5 Norte 22 Norte 0 1011.8 -- 39
2020-07-08 08:00:00 26.7 17 Norte 24 Noroeste 0 1011.9 -- 39
2020-07-08 07:00:00 -- -- -- -- -- -- -- -- --
2020-07-08 06:00:00 24.1 8 Norte 13 Este 0 1011.3 -- 58
2020-07-08 05:00:00 25.2 7 Nordeste 13 Nordeste 0 1011.9 -- 56
2020-07-08 04:00:00 24.8 6 Norte 15 Norte 0 1011.7 -- 60
2020-07-08 03:00:00 24.5 6 Nordeste 11 Nordeste -- 1012.2 -- 68
2020-07-08 02:00:00 24.3 5 Norte -- -- 0 1012.4 -- 71
2020-07-08 01:00:00 24.1 5 Este -- -- -- 1012.4 -- 92
2020-07-08 00:00:00 24.5 6 Sudeste 8 Sudeste 0 1012.2 -- 90
2020-07-07 23:00:00 24.7 4 Sudeste 8 Sudeste 0 1012 -- 90
2020-07-07 22:00:00 24.7 2 Sudoeste 8 Oeste 0 1011.5 -- 91
2020-07-07 21:00:00 24.6 3 Sudoeste 11 Sudoeste 0 1011.2 -- 93
2020-07-07 20:00:00 25.1 7 Sudoeste 11 Sudoeste 0 1011.1 -0.9 91
2020-07-07 19:00:00 27.2 9 Sur 17 Sur 0 1011 -1.2 80
2020-07-07 18:00:00 27.8 11 Sur 17 Sur 0 1011.3 -1.1 77
2020-07-07 17:00:00 28.1 12 Sur 18 Sur 0 1012 -1 76
2020-07-07 16:00:00 28.2 12 Sur 18 Sur 0 1012.2 -1.1 74
2020-07-07 15:00:00 28.4 13 Sur 21 Sur 0 1012.4 -0.6 69
2020-07-07 14:00:00 28.4 12 Sur 18 Sur 0 1013 0.3 63
2020-07-07 13:00:00 27.7 13 Sur 18 Sur 0 1013.3 0.4 63
2020-07-07 12:00:00 27.8 12 Sur 15 Sur 0 1013 0.1 56
2020-07-07 11:00:00 27.9 10 Sur 15 Sur 0 1012.7 0.1 49
2020-07-07 10:00:00 28.7 4 Oeste 11 Oeste 0 1012.9 0.5 40
2020-07-07 09:00:00 26 8 Noroeste 11 Noroeste 0 1012.9 0.5 49
2020-07-07 08:00:00 23.3 2 Noroeste 8 Nordeste 0 1012.6 0.2 57
2020-07-07 07:00:00 22.2 6 Nordeste 11 Nordeste 0 1012.4 -- 52
2020-07-07 06:00:00 21.9 9 Nordeste -- -- -- 1012.4 -- 57
2020-07-07 05:00:00 21.6 5 Sudeste 11 Este 0 1012.4 -- 62
2020-07-07 04:00:00 22.9 8 Noroeste 11 Noroeste 0 1012.9 -- 64
2020-07-07 03:00:00 23.2 4 Noroeste 8 Oeste 0 1013.2 -- 74
2020-07-07 02:00:00 23.6 4 Noroeste 8 Noroeste 0 1013.4 -- 74
2020-07-07 01:00:00 23.6 4 Este 8 Nordeste 0 1013.4 -- 84
2020-07-07 00:00:00 24.1 3 Norte -- -- -- 1013.2 -- 85
2020-07-06 23:00:00 24.2 -- -- 5 Sudoeste -- -- -- 80
2020-07-06 22:00:00 24.6 0 Calma 9 Sudoeste 0 1012.7 -- 80
2020-07-06 21:00:00 25.9 6 Sudoeste 11 Sur 0 1012.4 -- 77
2020-07-06 20:00:00 26.6 7 Sudoeste 15 Sudoeste 0 1012.5 -- 76
2020-07-06 19:00:00 26.8 9 Sur 15 Sur 0 1012.7 -- 75
2020-07-06 18:00:00 27.1 11 Sur 18 Sudoeste 0 1013.1 -- 75
2020-07-06 17:00:00 27.2 13 Sur 21 Sudoeste 0 1013.3 -- 74
2020-07-06 16:00:00 27.4 13 Sur 21 Sur 0 1013.7 -- 74
2020-07-06 15:00:00 27.2 15 Sur 21 Sur 0 1014 -- 75
2020-07-06 14:00:00 27.7 15 Sur 21 Sur 0 1014.2 -- 68
2020-07-06 13:00:00 27.3 13 Sudoeste -- -- -- 1014.4 -- 61
2020-07-06 12:00:00 -- -- -- -- -- -- -- -- --
2020-07-06 11:00:00 -- -- -- -- -- -- -- -- --
2020-07-06 10:00:00 -- -- -- -- -- -- -- -- --
2020-07-06 09:00:00 -- -- -- -- -- -- -- -- --
2020-07-06 08:00:00 -- -- -- -- -- -- -- -- --
2020-07-06 07:00:00 22 5 Nordeste 8 Nordeste 0 1013.8 -- 75
2020-07-06 06:00:00 21.6 5 Este -- -- -- 1013.7 -- 73
2020-07-06 05:00:00 22.3 0 Calma 5 Sudeste 0 1014 -- 74
2020-07-06 04:00:00 23.1 4 Norte 8 Norte 0 1014.4 -- 73
2020-07-06 03:00:00 23.3 3 Oeste -- -- -- 1014.9 -- 85
2020-07-06 02:00:00 24.2 6 Sudoeste 15 Sudoeste 0 1015.5 -- 73
2020-07-06 01:00:00 25.3 9 Sudoeste 15 Este 0 1015.7 -- 64
2020-07-06 00:00:00 26.2 9 Este -- -- -- 1015.5 -- 50
2020-07-05 23:00:00 26.4 13 Este 32 Este 0 1015 -- 50
2020-07-05 22:00:00 26.9 25 Nordeste 42 Este 0 1014.3 -- 51
2020-07-05 21:00:00 28.9 30 Este 39 Este 0 1014 -- 43
2020-07-05 20:00:00 31.4 28 Este 42 Este 0 1013.7 -- 39
2020-07-05 19:00:00 33.3 26 Este 41 Este 0 1013.6 -- 35
2020-07-05 18:00:00 34.8 27 Este 41 Este 0 1014 -- 29
2020-07-05 17:00:00 35.1 26 Este 41 Este 0 1014.7 -- 28
2020-07-05 16:00:00 35.5 28 Este 42 Este 0 1015.1 -- 27
2020-07-05 15:00:00 35.9 26 Este 42 Este 0 1015.5 -- 27
2020-07-05 14:00:00 35.5 26 Este 41 Este 0 1016.2 -- 27
2020-07-05 13:00:00 34.5 30 Este 42 Este 0 1016.7 -- 28
2020-07-05 12:00:00 34 27 Este 46 Este 0 1016.8 -- 30
2020-07-05 11:00:00 32.7 28 Este 41 Este 0 1016.8 -- 32
2020-07-05 10:00:00 31.4 26 Este 37 Este 0 1017.1 -- 34
2020-07-05 09:00:00 28.1 11 Norte 21 Noroeste 0 1016.8 -- 46
2020-07-05 08:00:00 25.4 8 Norte 13 Norte 0 1016.5 -- 57
2020-07-05 07:00:00 23.9 4 Este 9 Norte 0 1016.3 -- 60
2020-07-05 06:00:00 24.7 3 Noroeste 13 Norte 0 1016 -- 58
2020-07-05 05:00:00 25.1 6 Norte 17 Norte 0 1016.3 -- 57
2020-07-05 04:00:00 25.5 10 Norte 17 Norte 0 1016.2 -- 56
2020-07-05 03:00:00 25.5 12 Norte 18 Norte 0 1016.7 -- 57
2020-07-05 02:00:00 25.9 6 Norte 17 Norte 0 1017 -- 58
2020-07-05 01:00:00 25.2 14 Nordeste 24 Este 0 1017.4 -- 59
2020-07-05 00:00:00 25.3 16 Nordeste 28 Este 0 1017.2 -- 61
2020-07-04 23:00:00 25.8 22 Este 33 Este 0 1016.7 -- 64
2020-07-04 22:00:00 27 20 Este 33 Este 0 1016 -- 56
2020-07-04 21:00:00 28.9 26 Este 37 Este 0 1015.3 -- 48
2020-07-04 20:00:00 31.2 25 Este 41 Este 0 1015.4 -- 44
2020-07-04 19:00:00 33 23 Este 35 Este 0 1015.5 -- 40
2020-07-04 18:00:00 34 23 Este 33 Este 0 1015.8 -- 37
2020-07-04 17:00:00 34.5 21 Este 37 Este 0 1016.1 -- 35
2020-07-04 16:00:00 34.5 23 Sudeste 37 Sudeste 0 1016.5 -- 36
2020-07-04 15:00:00 33.7 24 Sudeste 35 Sudeste 0 1016.9 -- 41
2020-07-04 14:00:00 33.8 22 Este 37 Este 0 1017.3 -- 42
2020-07-04 13:00:00 32.8 22 Este 42 Este 0 1017.7 -- 44
2020-07-04 12:00:00 31 21 Este 33 Este 0 1018 -- 53
2020-07-04 11:00:00 29.7 23 Este 33 Sudeste 0 1018 -- 58
2020-07-04 10:00:00 28.1 23 Este 30 Este 0 1017.9 -- 64
2020-07-04 09:00:00 26.8 16 Este 22 Este 0 1017.8 -- 69
2020-07-04 08:00:00 24.6 11 Nordeste 21 Nordeste 0 1017.3 -- 79
2020-07-04 07:00:00 23.4 12 Nordeste 22 Nordeste 0 1016.9 -- 85
2020-07-04 06:00:00 23.6 13 Nordeste 21 Nordeste 0 1016.5 -- 82
2020-07-04 05:00:00 23.5 12 Nordeste 18 Nordeste 0 1016.5 -- 76
2020-07-04 04:00:00 24 8 Nordeste 13 Este 0 1016.5 -- 73
2020-07-04 03:00:00 24.2 9 Este 13 Nordeste 0 1017 -- 78
2020-07-04 02:00:00 24.9 11 Nordeste 17 Nordeste 0 1017 -- 76
2020-07-04 01:00:00 25.2 10 Este 18 Este 0 1017.6 -- 78
2020-07-04 00:00:00 25.7 14 Este 24 Este 0 1017.2 -- 78
2020-07-03 23:00:00 26.2 15 Este 21 Este 0 1016.4 -- 75
2020-07-03 22:00:00 25.4 5 Sur 11 Sudoeste 0 1015.4 -- 84
2020-07-03 21:00:00 26.5 7 Sudoeste 11 Sudoeste 0 1014.9 -- 78
2020-07-03 20:00:00 27 8 Sudoeste 21 Sudoeste 0 1014.7 -- 77
2020-07-03 19:00:00 27.2 12 Sudoeste 21 Sur 0 1014.5 -- 77
2020-07-03 18:00:00 27.5 11 Sudoeste 32 Sudoeste 0 1014.5 -- 76
2020-07-03 17:00:00 27.1 18 Sudoeste 32 Sur 0 1014.7 -- 80
2020-07-03 16:00:00 28.3 24 Sur 33 Sur 0 1014.8 -- 73
2020-07-03 15:00:00 31.6 21 Sudeste 37 Sudeste 0 1014.8 -- 55
2020-07-03 14:00:00 32.6 26 Sudeste 41 Sudeste 0 1014.7 -- 49
2020-07-03 13:00:00 31.7 29 Este 46 Este 0 1014.8 -- 52
2020-07-03 12:00:00 31.3 27 Este 46 Este 0 1014.6 -- 55
2020-07-03 11:00:00 30.1 30 Este 48 Este 0 1014.4 -- 59
2020-07-03 10:00:00 28.5 31 Este 42 Este 0 1014.1 -- 63
2020-07-03 09:00:00 26.2 29 Este 41 Este 0 1013.7 -- 74
2020-07-03 08:00:00 24.8 23 Este 39 Este 0 1013.1 -- 79
2020-07-03 07:00:00 21.7 10 Este 17 Este 0 1012.5 -- 86
2020-07-03 06:00:00 20.8 8 Nordeste 11 Nordeste 0 1011.9 -- 88
2020-07-03 05:00:00 21.6 7 Noroeste 13 Norte 0 1011.2 -- 90
2020-07-03 04:00:00 21.1 0 Calma -- -- -- 1010.9 -- 88
2020-07-03 03:00:00 21.6 8 Nordeste 15 Nordeste 0 1011.1 -- 89
2020-07-03 02:00:00 22.2 12 Este 21 Nordeste 0 1011.6 -- 88
2020-07-03 01:00:00 22.6 12 Nordeste 17 Nordeste 0 1011.9 -- 89
2020-07-03 00:00:00 23.2 6 Sudeste 15 Sudeste 0 1011.7 -- 87
2020-07-02 23:00:00 23.5 8 Este 13 Sudeste 0 1010.8 -- 85
2020-07-02 22:00:00 24 8 Sudeste 17 Sur 0 1010 -- 84
2020-07-02 21:00:00 25.2 13 Sur 18 Sur 0 1009.4 -- 77
2020-07-02 20:00:00 27.1 12 Sur 37 Sudoeste 0 1008.9 -- 66
2020-07-02 19:00:00 28.6 16 Sudoeste 39 Sur 0 1008.9 -- 56
2020-07-02 18:00:00 29.4 13 Sudeste 37 Sur 0 1009.1 -- 58
2020-07-02 17:00:00 29.5 20 Sur 35 Sur 0 1008.9 -- 53
2020-07-02 16:00:00 30.1 13 Sur 24 Sur 0 1009.7 -- 53
2020-07-02 15:00:00 29.1 11 Sudeste 22 Sudeste 0 1010.2 -- 57
2020-07-02 14:00:00 27.1 10 Sudeste 17 Sur 0 1010.6 -- 69
2020-07-02 13:00:00 26.7 10 Sur 22 Sur 0 1010.8 -- 71
2020-07-02 12:00:00 26.2 10 Sur 15 Sur 0 1010.5 -- 76
2020-07-02 11:00:00 26 7 Sur 11 Sur 0 1010.5 -- 76
2020-07-02 10:00:00 25.3 8 Sur 11 Sur 0 1010.6 -- 79
2020-07-02 09:00:00 23.6 9 Sudeste 13 Sudeste 0 1010.4 -- 85
2020-07-02 08:00:00 21.6 2 Oeste 9 Nordeste 0 1010 -- 84
2020-07-02 07:00:00 20.6 5 Nordeste 8 Norte 0 1009.7 -- 86
2020-07-02 06:00:00 20.5 0 Calma 8 Norte 0 1009.1 -- 88
2020-07-02 05:00:00 20.9 5 Noroeste 9 Nordeste 0 1008.7 -- 89
2020-07-02 04:00:00 21 7 Este 13 Sudeste 0 1009.1 -- 88
2020-07-02 03:00:00 21.8 8 Nordeste 11 Nordeste 0 1009.5 -- 88
2020-07-02 02:00:00 21.9 9 Nordeste 13 Este 0 1010.2 -- 91
2020-07-02 01:00:00 22.6 2 Sur 9 Este 0 1010.2 -- 90
2020-07-02 00:00:00 23 7 Sudoeste 18 Sudoeste 0 1010 -- 88
2020-07-01 23:00:00 23.5 8 Sur -- -- -- 1009.3 -- 85
2020-07-01 22:00:00 24.5 11 Sur 21 Sur 0 1008.5 -- 77
2020-07-01 21:00:00 25.4 10 Sudeste 32 Sur 0 1008.1 -- 72
2020-07-01 20:00:00 27.2 17 Sudoeste 33 Sur 0 1008.2 -- 63
2020-07-01 19:00:00 27.1 15 Sur 33 Sur 0 1008.1 -- 65
2020-07-01 18:00:00 27.7 17 Sudeste 33 Sudeste 0 1008.8 -- 65
2020-07-01 17:00:00 27.8 14 Sur 22 Sur 0 1008.8 -- 63
2020-07-01 16:00:00 27.1 15 Sur 22 Sur 0 1009.8 -- 69
2020-07-01 15:00:00 26.7 15 Sur 26 Sur 0 1010 -- 74
2020-07-01 14:00:00 26.8 14 Sur 21 Sur 0 1010.5 -- 72
2020-07-01 13:00:00 26.1 15 Sur 21 Sudoeste 0 1011 -- 75
2020-07-01 12:00:00 25.9 13 Sur 21 Sudoeste 0 1011.1 -- 74
2020-07-01 11:00:00 25.1 14 Sudoeste 21 Sudoeste 0 1011 -- 76
2020-07-01 10:00:00 24.2 17 Sudoeste 22 Sudoeste 0 1011 -- 80
2020-07-01 09:00:00 23.6 14 Oeste 26 Oeste 0 1010.9 -- 83
2020-07-01 08:00:00 22.3 10 Sudoeste 18 Sudoeste 0 1010.4 -- 93
2020-07-01 07:00:00 21.9 9 Sudoeste 17 Sudoeste 0 1009.9 -- 94
2020-07-01 06:00:00 22.3 9 Sudoeste 17 Sudoeste 0 1009.4 -- 94
2020-07-01 05:00:00 22.7 13 Sudoeste 21 Oeste 0 1009.3 -- 92
2020-07-01 04:00:00 22.8 15 Oeste 22 Oeste 0 1009.3 -- 89
2020-07-01 03:00:00 23.1 9 Sudoeste 26 Sudoeste 0 1009.7 -- 91
2020-07-01 02:00:00 23.7 15 Sudoeste 22 Sudoeste 0 1010.3 -- 89
2020-07-01 01:00:00 23.8 15 Sudoeste 24 Sudoeste 0 1010.6 -- 89
2020-07-01 00:00:00 23.7 7 Sudoeste 13 Sudoeste 0 1010.5 -- 89
2020-06-30 23:00:00 23.8 11 Sudoeste 17 Sudoeste 0 1010.8 -- 90
2020-06-30 22:00:00 23.6 11 Sudoeste 18 Sudoeste 0 1010.3 -- 91
2020-06-30 21:00:00 24.2 12 Sudoeste 22 Sudoeste 0 1009.5 -- 88
2020-06-30 20:00:00 25.2 13 Sudoeste 50 Sudoeste 0 1008.9 -- 84
2020-06-30 19:00:00 26 20 Sudoeste 33 Sudoeste 0 1008.6 -- 82
2020-06-30 18:00:00 26.7 23 Sudoeste 35 Sudoeste 0 1008.9 -- 77
2020-06-30 17:00:00 27.1 24 Sudoeste 37 Sudoeste 0 1009.2 -- 76
2020-06-30 16:00:00 27.4 23 Sudoeste 39 Sudoeste 0 1009.6 -- 75
2020-06-30 15:00:00 28.4 24 Sudoeste 33 Sudoeste 0 1009.9 -- 67
2020-06-30 14:00:00 29.1 18 Sudoeste 30 Sudoeste 0 1010.1 -- 63
2020-06-30 13:00:00 27.4 22 Sudoeste 30 Sudoeste 0 1010.3 -- 69
2020-06-30 12:00:00 26.6 22 Sudoeste 30 Sudoeste 0 1010.5 -- 74
2020-06-30 11:00:00 26 14 Sudoeste 21 Sudoeste 0 1010.6 -- 77
2020-06-30 10:00:00 27.1 10 Sur 13 Sur 0 1010.5 -- 64
2020-06-30 09:00:00 25.1 8 Sudoeste 15 Sudoeste 0 1010.5 -- 70
2020-06-30 08:00:00 23.5 8 Nordeste 11 Este 0 1009.9 -- 51
2020-06-30 07:00:00 23.1 8 Norte 32 Oeste 0 1009.5 -- 72
2020-06-30 06:00:00 23.8 22 Oeste 30 Oeste 0 1009.5 -- 72
2020-06-30 05:00:00 24.1 2 Sudoeste 15 Sudeste 0 1008.7 -- 45
2020-06-30 04:00:00 26.8 10 Este 37 Noroeste 0 1009.2 -- 36
2020-06-30 03:00:00 27.5 21 Norte 42 Norte 0 1009.7 -- 31
2020-06-30 02:00:00 26.6 14 Norte 24 Norte 0 1010.4 -- 49
2020-06-30 01:00:00 23.4 10 Nordeste 15 Nordeste 0 1011.5 -- 68
2020-06-30 00:00:00 23.5 3 Norte 8 Este 0 1012.1 -- 91
2020-06-29 23:00:00 23.4 5 Noroeste 21 Oeste 0 1012.4 -- 92
2020-06-29 22:00:00 24 12 Oeste 24 Oeste 0 1011.9 -- 90
2020-06-29 21:00:00 25.1 17 Oeste 22 Oeste 0 1011.2 -- 84
2020-06-29 20:00:00 25.7 16 Sudoeste 26 Sudoeste 0 1010.6 -- 83
2020-06-29 19:00:00 26.6 21 Sudoeste 28 Sudoeste 0 1010.5 -- 79
2020-06-29 18:00:00 27.2 21 Sudoeste 30 Sudoeste 0 1010.7 -- 75
2020-06-29 17:00:00 27.3 20 Sudoeste 30 Sudoeste 0 1011.3 -- 75
2020-06-29 16:00:00 26.8 23 Sudoeste 28 Sudoeste 0 1012 -- 75
2020-06-29 15:00:00 27.5 23 Sudoeste 30 Sudoeste 0 1013 -- 67
2020-06-29 14:00:00 27.4 19 Sudoeste 26 Sudoeste 0 1013.5 -- 62
2020-06-29 13:00:00 26 10 Sudoeste 18 Sudoeste 0 1013.9 -- 71
2020-06-29 12:00:00 24.8 13 Sur 18 Sudoeste 0 1014.2 -- 80
2020-06-29 11:00:00 24.6 13 Sudoeste 18 Sudoeste 0 1014.2 -- 80
2020-06-29 10:00:00 23.9 12 Sudoeste 21 Sudoeste 0 1014.4 -- 84
2020-06-29 09:00:00 24.4 14 Sudoeste 21 Oeste 0 1013.9 -- 72
2020-06-29 08:00:00 23.3 5 Noroeste 9 Norte 0 1013.3 -- 49
2020-06-29 07:00:00 22.9 4 Noroeste 21 Noroeste 0 1012.5 -- 38
2020-06-29 06:00:00 24.4 5 Este 28 Noroeste 0 1012.2 -- 37
2020-06-29 05:00:00 25.1 21 Norte 33 Noroeste 0 1011.9 -- 37
2020-06-29 04:00:00 23.1 10 Nordeste 17 Norte 0 1012.7 -- 42
2020-06-29 03:00:00 22.2 6 Norte 11 Norte 0 1013.6 -- 54
2020-06-29 02:00:00 22.4 6 Noroeste 8 Norte 0 1014.5 -- 55
2020-06-29 01:00:00 22.9 2 Noroeste 8 Noroeste 0 1014.5 -- 64
2020-06-29 00:00:00 23.3 6 Sudoeste 9 Oeste 0 1014.7 -- 66
2020-06-28 23:00:00 24 8 Oeste 13 Oeste 0 1014.3 -- 61
2020-06-28 22:00:00 23.7 7 Oeste 9 Oeste 0 1013.6 -- 67
2020-06-28 21:00:00 25.9 5 Sudoeste 9 Sur 0 1013 -- 57
2020-06-28 20:00:00 26.4 5 Sur 13 Sudoeste 0 1012.9 -- 71
2020-06-28 19:00:00 26.1 7 Sudoeste 15 Sudoeste 0 1013.1 -- 73
2020-06-28 18:00:00 26.1 9 Sudoeste 17 Sur 0 1013.9 -- 73
2020-06-28 17:00:00 26.5 12 Sudoeste 18 Sur 0 1014 -- 69
2020-06-28 16:00:00 26.8 14 Sur 21 Sur 0 1014.2 -0.9 69
2020-06-28 15:00:00 26.5 13 Sur 18 Sur 0 1014.5 -- 72
2020-06-28 14:00:00 26.3 12 Sur 18 Sur 0 1014.9 -- 74
2020-06-28 13:00:00 25.8 11 Sur 17 Sur 0 1015.1 -- 74
2020-06-28 12:00:00 25.9 11 Sur 15 Sur 0 1015 -- 57
2020-06-28 11:00:00 25 10 Sur 15 Sur 0 1014.9 -- 71
2020-06-28 10:00:00 24.8 9 Sur 13 Sur 0 1014.5 -- 70
2020-06-28 09:00:00 23.9 4 Sudoeste 9 Sur 0 1014.4 -- 70
2020-06-28 08:00:00 21.7 2 Norte 5 Norte 0 1013.8 -- 71
2020-06-28 07:00:00 20 0 Calma 5 Norte 0 1013.3 -- 76
2020-06-28 06:00:00 20.3 4 Oeste 11 Norte 0 1013 -- 83
2020-06-28 05:00:00 19.9 6 Nordeste 9 Este 0 1012.9 -- 83
2020-06-28 04:00:00 20.6 6 Norte 9 Norte 0 1012.9 -- 86
2020-06-28 03:00:00 20.5 7 Este 8 Este 0 1013.2 -- 85
2020-06-28 02:00:00 21 5 Este 5 Este 0 1013.5 -- 86
2020-06-28 01:00:00 21.6 0 Calma 9 Sudoeste 0 1014 -- 88
2020-06-28 00:00:00 21.9 6 Sur 8 Sur 0 1014.1 -- 84
2020-06-27 23:00:00 22.3 3 Sudoeste 8 Sudoeste 0 1013.4 -- 79
2020-06-27 22:00:00 22.6 3 Sur 9 Sur 0 1012.5 -- 78
2020-06-27 21:00:00 23.6 9 Sur 13 Sur 0 1011.9 -- 75
2020-06-27 20:00:00 24.4 8 Sur 13 Sudoeste 0 1011.4 -- 74
2020-06-27 19:00:00 24.9 9 Sudoeste 17 Sur 0 1012 -- 72
2020-06-27 18:00:00 25.5 10 Sur 17 Sur 0 1012.6 -- 71
2020-06-27 17:00:00 25.7 9 Sudoeste 17 Sudoeste 0 1012.5 -- 68
2020-06-27 16:00:00 25.9 10 Sur 17 Sur 0 1012.8 -- 71
2020-06-27 15:00:00 25.7 12 Sur 18 Sur 0 1012.9 -- 75
2020-06-27 14:00:00 25.4 10 Sur 17 Sur 0 1012.9 -- 75
2020-06-27 13:00:00 25 10 Sur 17 Sur 0 1013.2 -- 76
2020-06-27 12:00:00 24.8 12 Sur 17 Sur 0 1013.4 -- 77
2020-06-27 11:00:00 24.4 8 Sudoeste 15 Sur 0 1013.3 -- 76
2020-06-27 10:00:00 23.8 7 Sur 11 Sur 0 1013.3 -- 76
2020-06-27 09:00:00 22.1 6 Sur 9 Sudoeste 0 1013.1 -- 85
2020-06-27 08:00:00 20.3 4 Sudoeste 11 Nordeste 0 1012.7 -- 96
2020-06-27 07:00:00 19.9 6 Nordeste 15 Este 0 1012.2 -- 97
2020-06-27 06:00:00 19.8 10 Nordeste 15 Nordeste 0 1011.8 -- 96
2020-06-27 05:00:00 20.1 8 Nordeste 11 Nordeste 0 1011.3 -- 92
2020-06-27 04:00:00 20.8 0 Calma -- -- 0 1011.2 -- 92
2020-06-27 03:00:00 21.1 0 Calma 5 Sur 0 1011.5 -- 92
2020-06-27 02:00:00 21.5 3 Sur 9 Sudoeste 0 1011.7 -- 91
2020-06-27 01:00:00 21.6 8 Sur 11 Sur 0 1011.9 -- 91
2020-06-27 00:00:00 -- -- -- -- -- -- -- -- --
2020-06-26 23:00:00 21.9 5 Sur 9 Sur 0 1011.4 -- 88
2020-06-26 22:00:00 22.1 5 Sur 13 Sur 0 1010.6 -- 87
2020-06-26 21:00:00 23.1 7 Sur 18 Sur 0 1010.2 -- 82
2020-06-26 20:00:00 24.2 14 Sur 26 Sudoeste 0 1010 -- 77
2020-06-26 19:00:00 24.6 17 Sur 28 Sudoeste 0 1010.2 -- 74
2020-06-26 18:00:00 25.1 18 Sudoeste 26 Sudoeste 0 1010.7 -- 73
2020-06-26 17:00:00 25.7 18 Sur 26 Sur 0 1011.4 -- 70
2020-06-26 16:00:00 25.5 11 Sur 22 Sudoeste 0 1012.1 -- 71
2020-06-26 15:00:00 25.1 15 Sudoeste 21 Sudoeste 0 1012.5 -- 77
2020-06-26 14:00:00 25.4 13 Sudoeste 21 Sudoeste 0 1012.9 -- 76
2020-06-26 13:00:00 25 12 Sur 18 Sudoeste 0 1013 -- 77
2020-06-26 12:00:00 24.6 13 Sur 18 Sur 0 1012.9 -- 77
2020-06-26 11:00:00 24.4 12 Sur 15 Sur 0 1012.6 -- 77
2020-06-26 10:00:00 24.1 6 Sur 11 Sur 0 1012.7 -- 76
2020-06-26 09:00:00 23.3 5 Sur 11 Sur 0 1012.9 -- 78
2020-06-26 08:00:00 22 5 Sudeste 11 Este 0 1012.6 -- 77
2020-06-26 07:00:00 20.8 8 Nordeste 13 Nordeste 0 1012.2 -- 76
2020-06-26 06:00:00 20.1 7 Este 9 Este 0 1012 -- 84
2020-06-26 05:00:00 21 4 Oeste 13 Noroeste 0 1011.2 -- 82
2020-06-26 04:00:00 20.8 6 Nordeste 9 Este 0 1011.4 -- 75
2020-06-26 03:00:00 21.2 5 Este 8 Nordeste 0 1012.1 -- 76
2020-06-26 02:00:00 21.4 6 Nordeste -- -- 0 1012.7 -- 84
2020-06-26 01:00:00 21.8 -- -- -- -- 0 1013.3 -- 87
2020-06-26 00:00:00 22.3 3 Sur 8 Sudoeste 0 1013.1 -- 86
2020-06-25 23:00:00 22.7 7 Sudoeste 11 Sudoeste 0 1013.1 -- 85
2020-06-25 22:00:00 23.1 4 Sur 9 Sudoeste 0 1012.2 -- 81
2020-06-25 21:00:00 24.1 8 Sudoeste 15 Sudoeste 0 1011.7 -- 77
2020-06-25 20:00:00 25.2 10 Sur 15 Sudoeste 0 1011.5 -- 72
2020-06-25 19:00:00 26.3 12 Sur 21 Sudoeste 0 1011.2 -- 62
2020-06-25 18:00:00 26.1 15 Sudoeste 22 Sudoeste 0 1011.4 -- 69
2020-06-25 17:00:00 26.6 16 Sudoeste 21 Sudoeste 0 1011.5 -- 65
2020-06-25 16:00:00 26.8 15 Sudoeste 21 Sudoeste 0 1011.9 -- 64
2020-06-25 15:00:00 27.6 14 Sudoeste 24 Sudoeste 0 1012.3 -- 57
2020-06-25 14:00:00 26.7 16 Sudoeste 24 Sudoeste 0 1012.8 -- 63
2020-06-25 13:00:00 26.6 17 Sudoeste 26 Sudoeste 0 1013 -- 65
2020-06-25 12:00:00 24.9 19 Sudoeste 26 Sudoeste 0 1012.7 -- 71
2020-06-25 11:00:00 24.3 12 Sur 17 Sur 0 1012.3 -- 73
2020-06-25 10:00:00 24.2 5 Sur 11 Sur 0 1012.3 -- 73
2020-06-25 09:00:00 23.5 7 Sur 11 Sur 0 1012.4 -- 74
2020-06-25 08:00:00 22.1 2 Noroeste 15 Oeste 0 1011.9 -- 77
2020-06-25 07:00:00 22 6 Este 13 Este 0 1011.2 -- 48
2020-06-25 06:00:00 20.9 10 Nordeste 17 Nordeste 0 1010.9 -- 53
2020-06-25 05:00:00 21.5 4 Noroeste 11 Norte 0 1011.3 -- 61
2020-06-25 04:00:00 21.9 8 Nordeste 17 Oeste 0 1011.9 -- 60
2020-06-25 03:00:00 22.6 7 Oeste 17 Oeste 0 1012.5 -- 61
2020-06-25 02:00:00 22.7 7 Oeste 15 Oeste 0 1012.5 -- 66
2020-06-25 01:00:00 23.9 3 Este 13 Este 0 1012.7 -- 52
2020-06-25 00:00:00 25.8 10 Oeste 15 Oeste 0 1012.6 -- 48
2020-06-24 23:00:00 27.1 9 Norte 33 Este 0 1012.5 -- 39
2020-06-24 22:00:00 28.1 21 Este 30 Este 0 1012.2 -- 32
2020-06-24 21:00:00 26.9 16 Oeste 39 Este 0 1011.9 -- 54
2020-06-24 20:00:00 33.3 28 Este 41 Este 0 1010.7 -- 25
2020-06-24 19:00:00 33.9 27 Este 42 Este 0 1010.3 -- 28
2020-06-24 18:00:00 29.1 16 Sudoeste 22 Sudoeste 0 1011 -- 45
2020-06-24 17:00:00 26.3 15 Sudoeste 22 Sudoeste 0 1011.8 -- 66
2020-06-24 16:00:00 29.6 13 Sudoeste 21 Sudoeste 0 1012.3 -- 42
2020-06-24 15:00:00 27.9 17 Sudoeste 37 Sudoeste 0 1012.8 -- 52
2020-06-24 14:00:00 27.4 28 Sudoeste 45 Sudoeste 0 1013.1 -- 53
2020-06-24 13:00:00 28.5 34 Sudoeste 59 Sudoeste 0 1012.7 -- 49
2020-06-24 12:00:00 33.9 31 Este 42 Este 0 1010.9 -- 26
2020-06-24 11:00:00 31.2 26 Nordeste 39 Nordeste 0 1011.2 -- 29
2020-06-24 10:00:00 29.8 15 Nordeste 72 Este 0 1011.8 -- 32
2020-06-24 09:00:00 25.4 44 Nordeste 58 Este 0 1011 -- 49
2020-06-24 08:00:00 22.6 14 Sudeste 35 Este 0 1013.9 -- 73
2020-06-24 07:00:00 22.2 17 Nordeste 22 Este 0 1013.5 -- 75
2020-06-24 06:00:00 22.1 19 Sudoeste 35 Oeste 0 1012.8 -- 76
2020-06-24 05:00:00 23.2 21 Sudoeste 37 Noroeste 0 1011.9 -- 67
2020-06-24 04:00:00 26 15 Noroeste 28 Noroeste 0 1010.1 -- 41
2020-06-24 03:00:00 24.1 9 Norte -- -- -- 1011.1 -- 53
2020-06-24 02:00:00 26.8 22 Noroeste 35 Noroeste 0 1011.9 -- 45
2020-06-24 01:00:00 26.6 15 Noroeste 30 Este 0 1012.1 -- 48
2020-06-24 00:00:00 25.4 21 Este 46 Este 0 1013.2 -- 54
2020-06-23 23:00:00 26.1 31 Este 48 Este 0 1012.7 -- 50
2020-06-23 22:00:00 28.1 37 Este 59 Este 0 1011.8 -- 44
2020-06-23 21:00:00 28.3 36 Nordeste 63 Nordeste 0 1010.3 -- 43
2020-06-23 20:00:00 30.1 46 Nordeste 72 Nordeste 0 1009.8 -- 38
2020-06-23 19:00:00 32.1 40 Nordeste 61 Este 0 1009.9 -- 33
2020-06-23 18:00:00 32.2 47 Este 65 Este 0 1010.3 -- 32
2020-06-23 17:00:00 33.5 44 Este 61 Este 0 1010.9 -- 29
2020-06-23 16:00:00 34 44 Este 63 Este 0 1011.5 -- 27
2020-06-23 15:00:00 34.7 40 Este 59 Este 0 1012.1 -- 26
2020-06-23 14:00:00 34.8 39 Este 59 Este 0 1012.4 -- 26
2020-06-23 13:00:00 34.1 38 Nordeste 65 Este 0 1012.8 -- 26
2020-06-23 12:00:00 34 37 Nordeste 59 Este 0 1012.9 -- 26
2020-06-23 11:00:00 33.5 33 Nordeste 54 Nordeste 0 1013.3 -- 25
2020-06-23 10:00:00 32.7 32 Nordeste 48 Nordeste 0 1013.3 -- 25
2020-06-23 09:00:00 29.2 11 Norte 32 Noroeste 0 1013.6 -- 31
2020-06-23 08:00:00 26.6 13 Norte 32 Noroeste 0 1013.7 -- 36
2020-06-23 07:00:00 25.7 19 Noroeste 33 Noroeste 0 1014.1 -- 37
2020-06-23 06:00:00 25.8 18 Norte 30 Norte 0 1013.6 -- 38
2020-06-23 05:00:00 25.9 15 Norte 30 Noroeste 0 1013.6 -- 39
2020-06-23 04:00:00 25.7 14 Norte 26 Norte 0 1013.9 -- 42
2020-06-23 03:00:00 26.2 12 Norte 24 Norte 0 1014.3 -- 41
2020-06-23 02:00:00 25.6 13 Norte 22 Norte -- 1014.7 -- 46
2020-06-23 01:00:00 25.7 -- -- 21 Nordeste 0 -- -- 44
2020-06-23 00:00:00 26.5 11 Nordeste 22 Nordeste 0 1015 -- 41
2020-06-22 23:00:00 26.6 9 Este 32 Este 0 1014.5 -- 40
2020-06-22 22:00:00 27.7 18 Nordeste 45 Este 0 1013.8 -- 38
2020-06-22 21:00:00 29.1 33 Este 54 Este 0 1013.4 -- 35
2020-06-22 20:00:00 30.1 40 Este 63 Nordeste 0 1013.3 -- 37
2020-06-22 19:00:00 31.4 44 Este 61 Este 0 1013.5 -- 35
2020-06-22 18:00:00 32.6 45 Este 58 Este 0 1014.1 -- 29
2020-06-22 17:00:00 34.8 36 Este 50 Este 0 1014.7 -- 23
2020-06-22 16:00:00 35.1 36 Este 54 Este 0 1015.4 -- 22
2020-06-22 15:00:00 36 33 Este 48 Este 0 1016.1 -- 21
2020-06-22 14:00:00 35.7 30 Este 42 Este 0 1016.8 -- 20
2020-06-22 13:00:00 34.8 31 Este 46 Este 0 1017.3 -- 20
2020-06-22 12:00:00 33.7 30 Este 42 Este 0 1017.5 -- 24
2020-06-22 11:00:00 32.3 26 Este 39 Este 0 1017.5 -- 27
2020-06-22 10:00:00 31 18 Este 28 Este 0 1017.8 -- 31
2020-06-22 09:00:00 27.9 13 Nordeste 22 Este 0 1017.6 -- 41
2020-06-22 08:00:00 24.8 12 Nordeste 21 Nordeste 0 1017.3 -- 53
2020-06-22 07:00:00 22.1 13 Nordeste 22 Nordeste 0 1017 -- 67
2020-06-22 06:00:00 21.2 6 Norte 9 Norte 0 1016.8 -- 56
2020-06-22 05:00:00 20.4 2 Norte 9 Norte 0 1016.7 -- 63
2020-06-22 04:00:00 20.7 8 Norte 9 Norte 0 1016.7 -- 76
2020-06-22 03:00:00 21 2 Noroeste 4 Noroeste 0 1017.2 -- 77
2020-06-22 02:00:00 21.2 3 Sudeste 5 Sudeste 0 1017.6 -- 74
2020-06-22 01:00:00 21.7 3 Sudeste -- -- 0 1017.6 -- 73
2020-06-22 00:00:00 22.1 3 Sudeste 4 Sudeste 0 1017.4 -- 72
2020-06-21 23:00:00 22.6 4 Sudeste 8 Sudeste 0 1017.1 -- 72
2020-06-21 22:00:00 23.2 6 Sudeste 11 Sudeste 0 1016.6 -- 71
2020-06-21 21:00:00 24.9 7 Sudeste 11 Sudeste 0 1016.5 -- 61
2020-06-21 20:00:00 25.4 8 Sudeste 13 Sudeste 0 1016.5 -- 61
2020-06-21 19:00:00 25.5 6 Sur 15 Sur 0 1016.6 -- 65
2020-06-21 18:00:00 25.9 9 Sur 17 Sur 0 1017.2 -- 62
2020-06-21 17:00:00 25.6 10 Sur 17 Sur 0 1017.7 -- 64
2020-06-21 16:00:00 25.8 7 Sur 17 Sudoeste 0 1018.3 -- 64
2020-06-21 15:00:00 24.6 8 Sur 17 Sur 0 1018.7 -- 73
2020-06-21 14:00:00 24.3 12 Sur 17 Sur 0 1019.3 -- 75
2020-06-21 13:00:00 24.1 13 Sur 17 Sur 0 1019.4 -- 75
2020-06-21 12:00:00 24 11 Sur 15 Sur 0 1019.1 -- 75
2020-06-21 11:00:00 23.7 9 Sur 13 Sur 0 1019 -- 68
2020-06-21 10:00:00 22.5 8 Sur 11 Sur 0 1019 -- 82
2020-06-21 09:00:00 22.4 5 Sur 8 Sur 0 1018.8 -- 80
2020-06-21 08:00:00 20.6 0 Calma 8 Noroeste 0 1018.3 -- 85
2020-06-21 07:00:00 19.1 2 Nordeste 8 Nordeste 0 1017.9 -- 86
2020-06-21 06:00:00 19.1 5 Nordeste 9 Nordeste 0 1017.7 -- 92
2020-06-21 05:00:00 19.3 5 Este -- -- 0 1017.7 -- 94
2020-06-21 04:00:00 19.6 4 Nordeste 5 Este 0 1018 -- 94
2020-06-21 03:00:00 19.9 4 Este -- -- 0 1018.5 -- 96
2020-06-21 02:00:00 20.4 3 Sudeste -- -- -- 1018.8 -- 95
2020-06-21 01:00:00 20.6 2 Sudeste 8 Sudeste 0 1019 -- 94
2020-06-21 00:00:00 20.8 7 Sudeste 8 Sudeste 0 1019 -- 92
2020-06-20 23:00:00 21.1 0 Calma 8 Sudoeste 0 1018.7 -- 93
2020-06-20 22:00:00 21.7 6 Sudoeste 11 Sudoeste 0 1017.9 -- 91
2020-06-20 21:00:00 23 7 Sudoeste 11 Sur 0 1017.4 -- 83
2020-06-20 20:00:00 23.9 9 Sudoeste 13 Sudoeste 0 1017.3 -- 79
2020-06-20 19:00:00 24.6 8 Sudoeste 15 Sudoeste 0 1017.4 -- 75
2020-06-20 18:00:00 24.6 11 Sudoeste 21 Sudoeste 0 1017.8 -- 77
2020-06-20 17:00:00 24.7 12 Sudoeste 18 Sudoeste 0 1018.2 -- 77
2020-06-20 16:00:00 24.7 12 Sudoeste 18 Sur 0 1018.4 -- 76
2020-06-20 15:00:00 24.3 12 Sudoeste 21 Sudoeste 0 1018.7 -- 77
2020-06-20 14:00:00 24.1 12 Sudoeste 18 Sudoeste 0 1019.2 -- 77
2020-06-20 13:00:00 23.7 14 Sudoeste 21 Sudoeste 0 1019.6 -- 78
2020-06-20 12:00:00 23.9 15 Sudoeste 24 Sudoeste 0 1019.4 -- 77
2020-06-20 11:00:00 23.9 16 Sur 22 Sur 0 1019.2 -- 73
2020-06-20 10:00:00 25.3 9 Sur 13 Sudeste 0 1018.7 -- 60
2020-06-20 09:00:00 23.5 3 Norte 11 Este 0 1018.4 -- 62
2020-06-20 08:00:00 20.2 4 Este 8 Nordeste 0 1018.1 -- 77
2020-06-20 07:00:00 18.3 5 Nordeste 13 Norte 0 1017.8 -- 84
2020-06-20 06:00:00 19.1 7 Norte 11 Norte 0 1017.7 -- 91
2020-06-20 05:00:00 19.2 4 Oeste 9 Sudoeste 0 1017.6 -- 94
2020-06-20 04:00:00 19.6 5 Sudoeste 9 Sudoeste 0 1017.8 -- 95
2020-06-20 03:00:00 19.5 7 Oeste 9 Oeste 0 1017.9 -- 93
2020-06-20 02:00:00 19.7 3 Sudoeste 4 Sudoeste 0 1018.1 -- 89
2020-06-20 01:00:00 20 3 Sur 4 Sur 0 1018.2 -- 85
2020-06-20 00:00:00 20.3 3 Sudeste 5 Sur 0 1018.2 -- 89
2020-06-19 23:00:00 20.6 3 Sudeste 5 Sudeste 0 1017.8 -- 86
2020-06-19 22:00:00 21.1 4 Sur 8 Sudeste 0 1017.1 -- 85
2020-06-19 21:00:00 23.1 5 Sur 9 Sur 0 1016.5 -- 67
2020-06-19 20:00:00 23.8 5 Sur 11 Sur 0 1016.1 -- 64
2020-06-19 19:00:00 23.2 7 Sur 15 Sudoeste 0 1015.9 -- 72
2020-06-19 18:00:00 23.6 9 Sur 18 Sur 0 1015.9 -- 69
2020-06-19 17:00:00 23.7 8 Sur 17 Sur 0 1015.8 -- 67
2020-06-19 16:00:00 23.6 10 Sudoeste 18 Sudoeste 0 1016.1 -- 67
2020-06-19 15:00:00 23.3 13 Sudoeste 18 Sudoeste 0 1016.3 -- 70
2020-06-19 14:00:00 23.3 11 Sur 21 Sur 0 1016.2 -- 73
2020-06-19 13:00:00 22.8 12 Sudoeste 21 Sudoeste 0 1016.3 -- 73
2020-06-19 12:00:00 22.4 14 Sur 21 Sudoeste 0 1016 -- 80
2020-06-19 11:00:00 22.7 11 Sur 15 Sur 0 1015.6 -- 80
2020-06-19 10:00:00 22.4 9 Sur 13 Sur 0 1015.5 -- 82
2020-06-19 09:00:00 21.3 5 Sur 8 Sur 0 1015.1 -- 88
2020-06-19 08:00:00 20.1 3 Sur 5 Sur 0 1014.7 -- 94
2020-06-19 07:00:00 19.2 3 Este 8 Nordeste 0 1014.4 -- 96
2020-06-19 06:00:00 19 3 Sudeste 5 Sudeste 0 1013.9 -- 95
2020-06-19 05:00:00 19.6 4 Este 9 Nordeste 0 1013.5 -- 94
2020-06-19 04:00:00 19.6 5 Sudeste 8 Sudeste 0 1013.5 -- 93
2020-06-19 03:00:00 19.7 5 Oeste 18 Sudoeste 0 1013.5 -- 95
2020-06-19 02:00:00 20 25 Sudoeste 45 Este 0.6 1015.3 -- 93
2020-06-19 01:00:00 21 3 Sudoeste 18 Sudoeste 0.1 1014.7 -- 89
2020-06-19 00:00:00 21.3 13 Sudeste 24 Sur 0 1013.8 -- 81
2020-06-18 23:00:00 20.7 22 Sur 30 Sur 0 1014.1 -- 85
2020-06-18 22:00:00 20.9 5 Sur 11 Sur 0 1011.7 -- 84
2020-06-18 21:00:00 21.5 3 Sur 11 Sur 0 1010.6 -- 83
2020-06-18 20:00:00 22.5 7 Sur 15 Sudoeste 0 1010.4 -- 77
2020-06-18 19:00:00 23.5 12 Sudoeste 18 Sudoeste 0 1010.2 -- 71
2020-06-18 18:00:00 23.6 13 Sudoeste 22 Sudoeste 0 1010.5 -- 72
2020-06-18 17:00:00 24.1 16 Sudoeste 22 Sudoeste 0 1010.6 -- 72
2020-06-18 16:00:00 23.7 14 Sudoeste 22 Sudoeste 0 1010.6 -- 72
2020-06-18 15:00:00 23.6 16 Sudoeste 28 Sudoeste 0 1010.5 -- 72
2020-06-18 14:00:00 23.6 21 Sudoeste 26 Sudoeste 0 1010.4 -- 72
2020-06-18 13:00:00 23.1 14 Sudoeste 21 Sudoeste 0 1011 -- 73
2020-06-18 12:00:00 22.4 14 Sudoeste 18 Sudoeste 0 1011.1 -- 76
2020-06-18 11:00:00 22.1 13 Sudoeste 21 Este 0 1010.7 -- 75
2020-06-18 10:00:00 24.8 14 Este 28 Este 0 1010.8 -- 62
2020-06-18 09:00:00 22 10 Este 21 Este 0 1010.9 -- 74
2020-06-18 08:00:00 20.2 18 Nordeste 24 Este 0 1010.6 -- 81
2020-06-18 07:00:00 19.5 18 Este 28 Este 0 1010.4 -- 85
2020-06-18 06:00:00 18.8 16 Este 24 Este 0 1010.3 -- 88
2020-06-18 05:00:00 18.1 9 Este 15 Norte 0 1010.2 -- 86
2020-06-18 04:00:00 19 8 Norte 11 Norte 0 1010.2 -- 85
2020-06-18 03:00:00 18.5 9 Nordeste 13 Este 0 1010.3 -- 88
2020-06-18 02:00:00 18.5 8 Este 13 Sudeste 0 1010.8 -- 88
2020-06-18 01:00:00 18.9 5 Sudeste 8 Sudeste 0 1010.9 -- 86
2020-06-18 00:00:00 19.3 0 Calma 9 Oeste 0 1011.4 -- 85
2020-06-17 23:00:00 19.4 4 Sur 13 Sudeste 0 1011.5 -- 83
2020-06-17 22:00:00 19.9 6 Sudeste 9 Sudeste 0 1010.4 -- 81
2020-06-17 21:00:00 21.1 7 Sudeste 26 Sudeste 0 1010.1 -- 78
2020-06-17 20:00:00 25.1 4 Este 13 Sudeste 0 1009.8 -- 56
2020-06-17 19:00:00 23.4 6 Sudeste 17 Sudeste 0 1010.1 -- 66
2020-06-17 18:00:00 22.8 11 Sudeste 17 Sur 0 1010.8 -- 71
2020-06-17 17:00:00 22.5 11 Sur 21 Sur 0 1011.6 -- 73
2020-06-17 16:00:00 22.6 11 Sur 17 Sur 0 1011.9 -- 70
2020-06-17 15:00:00 22.1 10 Sur 17 Sur 0 1012.1 -- 72
2020-06-17 14:00:00 22.1 13 Sur 24 Oeste 0 1012.7 -- 71
2020-06-17 13:00:00 21.7 19 Sudoeste 26 Sudoeste 0 1013.4 -- 76
2020-06-17 12:00:00 21.1 13 Sudoeste 17 Sudoeste 0 1013 -- 77
2020-06-17 11:00:00 21.1 10 Sur 18 Sur 0 1013 -- 75
2020-06-17 10:00:00 22 11 Sur 15 Sur 0 1013.2 -- 71
2020-06-17 09:00:00 20.8 6 Nordeste 11 Nordeste 0 1013 -- 74
2020-06-17 08:00:00 18.6 6 Sudoeste 9 Sudoeste 0 1012.9 -- 87
2020-06-17 07:00:00 17.4 6 Oeste 9 Sur 0 1012.1 -- 86
2020-06-17 06:00:00 17.8 4 Noroeste 11 Oeste 0 1012.1 -- 82
2020-06-17 05:00:00 18.5 6 Nordeste 21 Este 0 1012.2 -- 74
2020-06-17 04:00:00 -- -- -- 24 Este 0 -- -- --
2020-06-17 03:00:00 17.8 15 Este 24 Este 0 1012.7 -- 84
2020-06-17 02:00:00 17.3 10 Este 15 Este 0 1013.2 -- 86
2020-06-17 01:00:00 17.9 2 Sudoeste 13 Sudeste 0 1013.5 -- 86
2020-06-17 00:00:00 18.5 9 Sudeste 15 Este 0 1013.6 -- 82
2020-06-16 23:00:00 19.4 7 Este 11 Sudeste 0 1013.4 -- 75
2020-06-16 22:00:00 20.1 8 Este 11 Este 0 1012.7 -- 72
2020-06-16 21:00:00 22.5 9 Sudeste 22 Sudoeste 0 1012.2 -- 63
2020-06-16 20:00:00 21.3 12 Sudoeste 22 Sudoeste 0 1012.3 -- 70
2020-06-16 19:00:00 21.6 16 Sur 22 Sur 0 1012.1 -- 68
2020-06-16 18:00:00 22.2 13 Sur 30 Sur 0 1012.7 -- 66
2020-06-16 17:00:00 22.5 21 Sur 30 Sudoeste 0 1013.3 -- 66
2020-06-16 16:00:00 23.2 18 Sudoeste 26 Sur 0 1013.8 -- 63
2020-06-16 15:00:00 22.4 12 Sur 17 Sur 0 1014.2 -- 67
2020-06-16 14:00:00 21.8 13 Sur 18 Sudeste 0 1014.7 -- 72
2020-06-16 13:00:00 21.2 7 Sur 18 Sudoeste 0 1015 -- 74
2020-06-16 12:00:00 20.2 11 Sur 18 Sur 0 1014.9 -- 78
2020-06-16 11:00:00 20.4 11 Sudoeste 15 Sudoeste 0 1015.1 -- 76
2020-06-16 10:00:00 20.5 10 Sur 13 Sur 0 1015.5 -- 76
2020-06-16 09:00:00 19.7 8 Este 13 Este 0 1015.1 -- 77
2020-06-16 08:00:00 18.1 6 Este 13 Este 0 1014.6 -- 86
2020-06-16 07:00:00 17.7 6 Sudeste 9 Sudeste 0 1014.2 -- 89
2020-06-16 06:00:00 17.8 5 Sudeste 9 Sudeste 0 1014.2 -- 88
2020-06-16 05:00:00 17.9 3 Este 11 Este 0 1014.2 -- 85
2020-06-16 04:00:00 17.9 8 Nordeste -- -- 0 1014.2 -- 86
2020-06-16 03:00:00 17.3 8 Este 13 Este 0 1014.8 -- 88
2020-06-16 02:00:00 17.2 10 Este 13 Este 0 1015.3 -- 87
2020-06-16 01:00:00 18.1 9 Este 15 Este 0 1015.8 -- 84
2020-06-16 00:00:00 18 9 Este 11 Este 0 1016.2 -- 84
2020-06-15 23:00:00 18.5 4 Sudeste 13 Sudeste 0 1016 -- 84
2020-06-15 22:00:00 19.4 5 Sudeste 17 Sudeste 0 1015.6 -- 78
2020-06-15 21:00:00 20.5 12 Sudeste 18 Sur 0 1015.6 -- 75
2020-06-15 20:00:00 21.2 9 Sudoeste 18 Sudoeste 0 1015.7 -- 71
2020-06-15 19:00:00 22.1 10 Sur 18 Sudoeste 0 1015.7 -- 69
2020-06-15 18:00:00 22 9 Sudoeste 21 Sudoeste 0 1016.1 -- 68
2020-06-15 17:00:00 22.4 15 Sudoeste 30 Sudoeste 0 1016.5 -- 66
2020-06-15 16:00:00 22.4 9 Sur 30 Sudoeste 0 1017.1 -- 66
2020-06-15 15:00:00 22 11 Sur 28 Sudoeste 0 1017.9 -- 68
2020-06-15 14:00:00 22.1 16 Sudoeste 28 Sudoeste 0 1018.4 -- 68
2020-06-15 13:00:00 20.8 8 Sur 21 Sudoeste 0 1018.9 -- 74
2020-06-15 12:00:00 20 12 Sudoeste 17 Sur 0 1018.9 -- 76
2020-06-15 11:00:00 19.6 11 Sur 15 Sur 0 1018.5 -- 77
2020-06-15 10:00:00 19.3 11 Sudeste 15 Sudeste 0 1018.4 -- 77
2020-06-15 09:00:00 19.5 10 Sudeste 15 Sudeste 0 1018 -- 75
2020-06-15 08:00:00 16.7 8 Este 13 Este 0 1017.7 -- 88
2020-06-15 07:00:00 15.2 5 Sudeste 17 Este 0 1017.3 -- 89
2020-06-15 06:00:00 15.7 9 Este 21 Este 0 1016.7 -- 90
2020-06-15 05:00:00 16 4 Este 11 Nordeste 0 1016.4 -- 83
2020-06-15 04:00:00 16 5 Este 9 Este 0 1016.7 -- 87
2020-06-15 03:00:00 16.7 8 Este 18 Nordeste 0 1016.9 -- 86
2020-06-15 02:00:00 16.8 12 Este 17 Este 0 1016.9 -- 85
2020-06-15 01:00:00 17.3 14 Este 22 Este 0 1016.8 -- 83
2020-06-15 00:00:00 17.8 13 Este 18 Este 0 1016.8 -- 80